VBD201 KSFO-KSCK
Flight info
| Callsign | VBD201 |
|---|---|
| Flight time | 0h 24m |
| Altitude | 13000 |
| Route | SFO4 SFO OAK V244 ALTAM MOD |
| Aircraft | TBM9/L-SDFGRWY/S |
Departure
| Time | 2026-04-21 13:36 |
|---|---|
| Airport | San Francisco International Airport (KSFO) |
Arrival
| Time | 2026-04-21 14:00 |
|---|---|
| Airport | Stockton Metropolitan Airport (KSCK) |
| Time | Latitude | Longitude | Altitude | Speed | Heading |
|---|---|---|---|---|---|
| 2026-04-21 13:29 | 37.62597 | -122.37414 | 13 ft | 0 kts | 118° |
| 2026-04-21 13:33 | 37.62595 | -122.37408 | 13 ft | 3 kts | 115° |
| 2026-04-21 13:33 | 37.62586 | -122.37356 | 13 ft | 9 kts | 84° |
| 2026-04-21 13:33 | 37.62634 | -122.37312 | 14 ft | 9 kts | 27° |
| 2026-04-21 13:33 | 37.62629 | -122.37248 | 15 ft | 0 kts | 140° |
| 2026-04-21 13:34 | 37.62627 | -122.37246 | 15 ft | 2 kts | 133° |
| 2026-04-21 13:34 | 37.62613 | -122.37221 | 15 ft | 4 kts | 123° |
| 2026-04-21 13:34 | 37.62599 | -122.37193 | 15 ft | 4 kts | 119° |
| 2026-04-21 13:34 | 37.62581 | -122.37169 | 15 ft | 6 kts | 159° |
| 2026-04-21 13:35 | 37.62497 | -122.37182 | 13 ft | 23 kts | 200° |
| 2026-04-21 13:35 | 37.62147 | -122.37389 | 13 ft | 86 kts | 203° |
| 2026-04-21 13:35 | 37.61557 | -122.37753 | 413 ft | 99 kts | 207° |
| 2026-04-21 13:35 | 37.61015 | -122.38630 | 310 ft | 163 kts | 253° |
| 2026-04-21 13:36 | 37.61253 | -122.40192 | 277 ft | 201 kts | 301° |
| 2026-04-21 13:36 | 37.62153 | -122.41495 | 681 ft | 198 kts | 311° |
| 2026-04-21 13:36 | 37.63278 | -122.42521 | 1265 ft | 170 kts | 329° |
| 2026-04-21 13:36 | 37.64333 | -122.43285 | 1940 ft | 178 kts | 319° |
| 2026-04-21 13:37 | 37.65095 | -122.44513 | 2388 ft | 181 kts | 293° |
| 2026-04-21 13:37 | 37.65652 | -122.45953 | 2858 ft | 184 kts | 291° |
| 2026-04-21 13:37 | 37.66195 | -122.47422 | 3334 ft | 186 kts | 290° |
| 2026-04-21 13:37 | 37.66754 | -122.48897 | 3821 ft | 188 kts | 292° |
| 2026-04-21 13:38 | 37.67367 | -122.50364 | 4302 ft | 189 kts | 294° |
| 2026-04-21 13:38 | 37.67998 | -122.51800 | 4792 ft | 191 kts | 299° |
| 2026-04-21 13:38 | 37.69084 | -122.52794 | 5291 ft | 202 kts | 340° |
| 2026-04-21 13:38 | 37.70495 | -122.52786 | 5800 ft | 209 kts | 18° |
| 2026-04-21 13:39 | 37.71653 | -122.51727 | 6317 ft | 207 kts | 58° |
| 2026-04-21 13:39 | 37.72099 | -122.50067 | 6806 ft | 197 kts | 94° |
| 2026-04-21 13:39 | 37.72129 | -122.48274 | 6953 ft | 216 kts | 96° |
| 2026-04-21 13:39 | 37.72145 | -122.46299 | 6967 ft | 232 kts | 95° |
| 2026-04-21 13:40 | 37.72178 | -122.44213 | 6965 ft | 241 kts | 95° |
| 2026-04-21 13:40 | 37.72220 | -122.42070 | 6962 ft | 246 kts | 95° |
| 2026-04-21 13:40 | 37.72259 | -122.39900 | 6954 ft | 247 kts | 94° |
| 2026-04-21 13:40 | 37.72302 | -122.37723 | 6961 ft | 249 kts | 94° |
| 2026-04-21 13:41 | 37.72342 | -122.35537 | 6963 ft | 249 kts | 95° |
| 2026-04-21 13:41 | 37.72379 | -122.33349 | 6969 ft | 250 kts | 95° |
| 2026-04-21 13:41 | 37.72417 | -122.31151 | 6967 ft | 250 kts | 95° |
| 2026-04-21 13:41 | 37.72455 | -122.28952 | 6964 ft | 251 kts | 94° |
| 2026-04-21 13:42 | 37.72492 | -122.26748 | 6961 ft | 251 kts | 94° |
| 2026-04-21 13:42 | 37.72529 | -122.24541 | 6958 ft | 251 kts | 95° |
| 2026-04-21 13:42 | 37.72590 | -122.22335 | 6949 ft | 253 kts | 89° |
| 2026-04-21 13:42 | 37.72976 | -122.20150 | 6956 ft | 256 kts | 81° |
| 2026-04-21 13:43 | 37.73384 | -122.17967 | 6955 ft | 255 kts | 83° |
| 2026-04-21 13:43 | 37.73768 | -122.15777 | 6952 ft | 256 kts | 83° |
| 2026-04-21 13:43 | 37.74167 | -122.13583 | 6955 ft | 256 kts | 82° |
| 2026-04-21 13:43 | 37.74570 | -122.11390 | 6956 ft | 256 kts | 83° |
| 2026-04-21 13:44 | 37.74968 | -122.09195 | 6942 ft | 255 kts | 82° |
| 2026-04-21 13:44 | 37.75376 | -122.07018 | 6963 ft | 255 kts | 82° |
| 2026-04-21 13:44 | 37.75766 | -122.04830 | 6960 ft | 256 kts | 83° |
| 2026-04-21 13:44 | 37.76155 | -122.02630 | 6955 ft | 257 kts | 82° |
| 2026-04-21 13:45 | 37.76549 | -122.00468 | 6951 ft | 256 kts | 82° |
| 2026-04-21 13:45 | 37.76954 | -121.98277 | 6953 ft | 256 kts | 82° |
| 2026-04-21 13:45 | 37.77348 | -121.96088 | 6953 ft | 256 kts | 83° |
| 2026-04-21 13:45 | 37.77744 | -121.93892 | 6951 ft | 257 kts | 83° |
| 2026-04-21 13:46 | 37.78142 | -121.91692 | 6953 ft | 257 kts | 83° |
| 2026-04-21 13:46 | 37.78536 | -121.89491 | 6955 ft | 257 kts | 83° |
| 2026-04-21 13:46 | 37.78935 | -121.87284 | 6952 ft | 258 kts | 83° |
| 2026-04-21 13:46 | 37.79334 | -121.85072 | 6953 ft | 258 kts | 83° |
| 2026-04-21 13:47 | 37.79730 | -121.82854 | 6954 ft | 259 kts | 83° |
| 2026-04-21 13:47 | 37.80128 | -121.80632 | 6952 ft | 259 kts | 83° |
| 2026-04-21 13:47 | 37.80528 | -121.78406 | 6949 ft | 260 kts | 82° |
| 2026-04-21 13:47 | 37.80920 | -121.76190 | 6953 ft | 256 kts | 89° |
| 2026-04-21 13:48 | 37.80943 | -121.74000 | 6969 ft | 247 kts | 104° |
| 2026-04-21 13:48 | 37.80552 | -121.71915 | 6968 ft | 243 kts | 115° |
| 2026-04-21 13:48 | 37.80064 | -121.69860 | 6962 ft | 246 kts | 113° |
| 2026-04-21 13:48 | 37.79598 | -121.67770 | 6967 ft | 247 kts | 112° |
| 2026-04-21 13:49 | 37.79117 | -121.65681 | 6964 ft | 248 kts | 114° |
| 2026-04-21 13:49 | 37.78793 | -121.64295 | 6965 ft | 249 kts | 114° |
| 2026-04-21 13:49 | 37.78306 | -121.62194 | 6967 ft | 249 kts | 114° |
| 2026-04-21 13:49 | 37.77822 | -121.60101 | 6967 ft | 248 kts | 114° |
| 2026-04-21 13:50 | 37.77337 | -121.58007 | 6962 ft | 248 kts | 114° |
| 2026-04-21 13:50 | 37.76852 | -121.55918 | 6964 ft | 248 kts | 114° |
| 2026-04-21 13:50 | 37.76367 | -121.53830 | 6961 ft | 248 kts | 114° |
| 2026-04-21 13:50 | 37.75882 | -121.51743 | 6961 ft | 247 kts | 115° |
| 2026-04-21 13:51 | 37.75398 | -121.49659 | 6965 ft | 247 kts | 115° |
| 2026-04-21 13:51 | 37.74912 | -121.47584 | 6963 ft | 246 kts | 115° |
| 2026-04-21 13:51 | 37.74429 | -121.45505 | 6961 ft | 246 kts | 115° |
| 2026-04-21 13:51 | 37.73946 | -121.43437 | 6964 ft | 245 kts | 115° |
| 2026-04-21 13:52 | 37.73465 | -121.41375 | 6961 ft | 244 kts | 115° |
| 2026-04-21 13:52 | 37.72985 | -121.39310 | 6962 ft | 246 kts | 115° |
| 2026-04-21 13:52 | 37.72500 | -121.37245 | 6962 ft | 245 kts | 116° |
| 2026-04-21 13:52 | 37.72022 | -121.35198 | 6959 ft | 242 kts | 115° |
| 2026-04-21 13:53 | 37.71548 | -121.33164 | 6964 ft | 241 kts | 115° |
| 2026-04-21 13:53 | 37.71073 | -121.31142 | 6959 ft | 240 kts | 116° |
| 2026-04-21 13:53 | 37.70600 | -121.29130 | 6960 ft | 239 kts | 116° |
| 2026-04-21 13:53 | 37.70128 | -121.27121 | 6962 ft | 238 kts | 116° |
| 2026-04-21 13:54 | 37.69657 | -121.25120 | 6966 ft | 238 kts | 116° |
| 2026-04-21 13:54 | 37.69186 | -121.23120 | 6963 ft | 237 kts | 115° |
| 2026-04-21 13:54 | 37.68831 | -121.21066 | 6958 ft | 244 kts | 104° |
| 2026-04-21 13:54 | 37.68894 | -121.18890 | 6944 ft | 252 kts | 88° |
| 2026-04-21 13:55 | 37.69406 | -121.16735 | 6848 ft | 262 kts | 72° |
| 2026-04-21 13:55 | 37.70359 | -121.14826 | 6654 ft | 252 kts | 54° |
| 2026-04-21 13:55 | 37.71633 | -121.13335 | 6460 ft | 249 kts | 38° |
| 2026-04-21 13:55 | 37.73143 | -121.12311 | 6212 ft | 246 kts | 21° |
| 2026-04-21 13:56 | 37.74790 | -121.11803 | 5970 ft | 242 kts | 4° |
| 2026-04-21 13:56 | 37.76456 | -121.11824 | 5668 ft | 238 kts | 348° |
| 2026-04-21 13:56 | 37.77987 | -121.12318 | 5292 ft | 215 kts | 333° |
| 2026-04-21 13:56 | 37.79304 | -121.12954 | 4874 ft | 196 kts | 344° |
| 2026-04-21 13:57 | 37.80574 | -121.12800 | 4562 ft | 176 kts | 8° |
| 2026-04-21 13:57 | 37.81585 | -121.13171 | 4046 ft | 146 kts | 303° |
| 2026-04-21 13:57 | 37.82336 | -121.13993 | 3692 ft | 150 kts | 326° |
| 2026-04-21 13:57 | 37.83309 | -121.14480 | 3312 ft | 146 kts | 327° |
| 2026-04-21 13:58 | 37.84133 | -121.15191 | 2972 ft | 143 kts | 321° |
| 2026-04-21 13:58 | 37.84812 | -121.16027 | 2592 ft | 134 kts | 298° |
| 2026-04-21 13:58 | 37.85269 | -121.17087 | 2009 ft | 137 kts | 302° |
| 2026-04-21 13:58 | 37.85804 | -121.18066 | 1501 ft | 134 kts | 309° |
| 2026-04-21 13:59 | 37.86467 | -121.18819 | 1267 ft | 121 kts | 319° |
| 2026-04-21 13:59 | 37.87029 | -121.19632 | 838 ft | 126 kts | 308° |
| 2026-04-21 13:59 | 37.87567 | -121.20628 | 418 ft | 151 kts | 303° |
| 2026-04-21 13:59 | 37.88137 | -121.21690 | 104 ft | 135 kts | 310° |
| 2026-04-21 14:00 | 37.88665 | -121.22529 | 36 ft | 110 kts | 310° |
| 2026-04-21 14:00 | 37.89062 | -121.23138 | 33 ft | 65 kts | 308° |
| 2026-04-21 14:00 | 37.89293 | -121.23551 | 33 ft | 51 kts | 287° |
| 2026-04-21 14:00 | 37.89257 | -121.23931 | 36 ft | 33 kts | 255° |
| 2026-04-21 14:01 | 37.89220 | -121.24099 | 35 ft | 0 kts | 259° |